Newark-Heath Information

FAA: VTA - ICAO: KVTA

Newark-Heath (Airport) Location

State Ohio
County Licking
City Newark
Newark-Heath (Airport) is 3 miles southwest of Newark, OH.
Latitude 40-01-28.8000N
Longitude 082-27-42.5000W
Elevation 883ft

Newark-Heath METARs

METAR KVTA 182354Z AUTO 16008KT 10SM OVC095 M01/M06 A3005 RMK AO2 SLP186 T10061061 10006 21011 58002
Altimeter 30.05"
Temperature -0.6°C (30.9°F)
Wind 160° at 8KT
Clouds overcast at 9,500ft
Visibility 10.0mi
Time observed: 2022-01-18T23:54:00Z

Newark-Heath (Airport) Details

Status Operational
Activation December 1937
Ownership Public
Usage Public
Chart DETROIT
ATC on-site No
Beacon schedule sunset-sunrise
Beacon color clear green

Newark-Heath (Airport) Contacts

Owner LICKING CO RGNL ARPT AUTH
Owner address 530 HEATH RD, HEATH, OH 43056-1134
Owner phone 740-522-6968
Manager A MURRAY CUNNINGHAM
Manager address 6150 BAYARD ROAD, MINERVA, OH 44657
Manager phone 216-894-2276

Newark-Heath Radio Frequencies

Newark-Heath (Airport) Radio Frequencies

UNICOM 122.7
Common traffic advisory frequency (CTAF) 122.7